createdAt,value
2022-08-09T00:01:27.822Z,13.60
2022-08-09T00:04:25.123Z,13.50
2022-08-09T00:06:56.473Z,13.50
2022-08-09T00:09:24.229Z,13.50
2022-08-09T00:12:03.123Z,13.60
2022-08-09T00:14:38.013Z,13.60
2022-08-09T00:17:05.556Z,13.50
2022-08-09T00:19:32.226Z,13.40
2022-08-09T00:22:00.869Z,13.40
2022-08-09T00:24:32.085Z,13.50
2022-08-09T00:26:59.851Z,13.50
2022-08-09T00:29:39.652Z,13.50
2022-08-09T00:32:14.339Z,13.30
2022-08-09T00:34:52.849Z,13.30
2022-08-09T00:37:19.639Z,13.30
2022-08-09T00:40:12.392Z,13.30
2022-08-09T00:44:10.305Z,13.30
2022-08-09T00:45:20.334Z,13.30
2022-08-09T00:47:47.684Z,13.30
2022-08-09T00:50:15.205Z,13.30
2022-08-09T00:52:42.249Z,13.20
2022-08-09T00:55:16.639Z,13.20
2022-08-09T00:57:43.651Z,13.10
2022-08-09T01:00:22.092Z,13.00
2022-08-09T01:02:51.861Z,13.10
2022-08-09T01:05:22.251Z,13.10
2022-08-09T01:08:11.392Z,13.10
2022-08-09T01:10:54.004Z,13.10
2022-08-09T01:13:23.771Z,13.00
2022-08-09T01:15:59.309Z,13.10
2022-08-09T01:18:31.324Z,13.10
2022-08-09T01:21:01.126Z,13.00
2022-08-09T01:24:02.902Z,13.00
2022-08-09T01:26:36.251Z,13.00
2022-08-09T01:29:04.280Z,12.90
2022-08-09T01:32:32.231Z,12.90
2022-08-09T01:34:21.627Z,12.90
2022-08-09T01:36:49.286Z,12.90
2022-08-09T01:39:16.804Z,12.80
2022-08-09T01:41:53.752Z,12.90
2022-08-09T01:44:27.573Z,12.80
2022-08-09T01:46:54.320Z,12.80
2022-08-09T01:49:24.076Z,12.80
2022-08-09T01:51:58.604Z,12.70
2022-08-09T01:54:42.051Z,12.70
2022-08-09T01:57:14.704Z,12.70
2022-08-09T01:59:52.066Z,12.70
2022-08-09T02:02:29.966Z,12.60
2022-08-09T02:05:04.678Z,12.50
2022-08-09T02:08:35.549Z,12.50
2022-08-09T02:10:29.734Z,12.60
2022-08-09T02:12:57.838Z,12.60
2022-08-09T02:15:27.218Z,12.70
2022-08-09T02:18:15.136Z,12.60
2022-08-09T02:20:45.458Z,12.60
2022-08-09T02:23:19.410Z,12.60
2022-08-09T02:25:52.860Z,12.60
2022-08-09T02:28:26.963Z,12.60
2022-08-09T02:30:58.463Z,12.40
2022-08-09T02:33:58.141Z,12.40
2022-08-09T02:36:15.888Z,12.50
2022-08-09T02:38:52.986Z,12.30
2022-08-09T02:41:22.653Z,12.30
2022-08-09T02:43:54.579Z,12.20
2022-08-09T02:46:27.905Z,12.20
2022-08-09T02:48:58.840Z,12.20
2022-08-09T02:51:27.857Z,12.20
2022-08-09T02:54:05.136Z,12.20
2022-08-09T02:56:33.342Z,12.10
2022-08-09T02:59:02.194Z,12.10
2022-08-09T03:01:58.502Z,12.20
2022-08-09T03:04:19.602Z,12.20
2022-08-09T03:06:48.957Z,12.10
2022-08-09T03:09:17.430Z,12.20
2022-08-09T03:12:06.556Z,12.30
2022-08-09T03:14:32.147Z,12.30
2022-08-09T03:17:01.748Z,12.20
2022-08-09T03:19:58.909Z,12.20
2022-08-09T03:22:30.131Z,12.20
2022-08-09T03:25:21.637Z,12.20
2022-08-09T03:27:47.372Z,12.20
2022-08-09T03:30:29.240Z,12.10
2022-08-09T03:32:57.027Z,12.10
2022-08-09T03:36:11.659Z,12.00
2022-08-09T03:38:28.995Z,11.90
2022-08-09T03:40:56.042Z,11.90
2022-08-09T03:43:22.937Z,11.90
2022-08-09T03:46:05.304Z,11.90
2022-08-09T03:48:36.864Z,11.90
2022-08-09T03:51:55.509Z,11.90
2022-08-09T03:53:57.846Z,11.90
2022-08-09T03:56:26.685Z,12.00
2022-08-09T03:58:54.682Z,12.00
2022-08-09T04:01:21.446Z,12.00
2022-08-09T04:04:01.508Z,12.10
2022-08-09T04:06:30.520Z,12.00
2022-08-09T04:08:57.215Z,11.90
2022-08-09T04:11:23.859Z,11.90
2022-08-09T04:14:37.563Z,11.90
2022-08-09T04:16:38.872Z,12.00
2022-08-09T04:19:11.155Z,12.00
2022-08-09T04:21:42.659Z,11.80
2022-08-09T04:24:09.311Z,11.90
2022-08-09T04:26:38.447Z,12.00
2022-08-09T04:29:10.901Z,12.00
2022-08-09T04:31:47.040Z,12.00
2022-08-09T04:34:14.253Z,12.00
2022-08-09T04:36:50.355Z,12.00
2022-08-09T04:39:17.222Z,12.00
2022-08-09T04:41:44.336Z,12.00
2022-08-09T04:44:14.541Z,12.00
2022-08-09T04:46:59.121Z,12.10
2022-08-09T04:49:52.755Z,12.10
2022-08-09T04:52:22.002Z,12.10
2022-08-09T04:54:53.925Z,12.20
2022-08-09T04:57:24.053Z,12.30
2022-08-09T04:59:52.367Z,12.30
2022-08-09T05:02:19.048Z,12.40
2022-08-09T05:04:47.372Z,12.40
2022-08-09T05:07:19.172Z,12.50
2022-08-09T05:09:50.100Z,12.50
2022-08-09T05:12:17.022Z,12.70
2022-08-09T05:14:43.704Z,12.70
2022-08-09T05:18:36.714Z,12.80
2022-08-09T05:19:58.434Z,12.80
2022-08-09T05:22:33.266Z,12.90
2022-08-09T05:25:02.559Z,13.00
2022-08-09T05:27:31.047Z,13.10
2022-08-09T05:29:57.948Z,13.20
2022-08-09T05:32:26.130Z,13.30
2022-08-09T05:34:56.978Z,13.40
2022-08-09T05:37:23.934Z,13.50
2022-08-09T05:39:52.413Z,13.60
2022-08-09T05:42:33.405Z,13.70
2022-08-09T05:45:01.031Z,13.80
2022-08-09T05:47:30.169Z,14.00
2022-08-09T05:50:30.611Z,14.10
2022-08-09T05:52:44.366Z,14.20
2022-08-09T05:55:21.119Z,14.30
2022-08-09T05:57:51.072Z,14.40
2022-08-09T06:00:23.295Z,14.50
2022-08-09T06:02:50.196Z,14.60
2022-08-09T06:05:31.108Z,14.70
2022-08-09T06:08:09.012Z,14.80
2022-08-09T06:10:40.679Z,15.00
2022-08-09T06:13:18.292Z,15.20
2022-08-09T06:15:47.217Z,15.20
2022-08-09T06:18:17.839Z,15.40
2022-08-09T06:20:54.160Z,15.50
2022-08-09T06:23:21.612Z,15.60
2022-08-09T06:25:49.237Z,15.60
2022-08-09T06:28:16.044Z,15.70
2022-08-09T06:30:43.360Z,15.90
2022-08-09T06:33:30.514Z,16.00
2022-08-09T06:35:58.432Z,16.10
2022-08-09T06:38:32.161Z,16.20
2022-08-09T06:41:04.817Z,16.30
2022-08-09T06:43:45.320Z,16.40
2022-08-09T06:46:38.923Z,16.50
2022-08-09T06:49:00.377Z,16.60
2022-08-09T06:51:28.102Z,16.70
2022-08-09T06:53:55.164Z,16.80
2022-08-09T06:56:21.871Z,16.80
2022-08-09T07:00:51.173Z,16.90
2022-08-09T07:01:54.144Z,17.00
2022-08-09T07:04:25.159Z,17.10
2022-08-09T07:06:59.918Z,17.10
2022-08-09T07:09:56.535Z,17.20
2022-08-09T07:12:18.147Z,17.20
2022-08-09T07:14:46.009Z,17.30
2022-08-09T07:17:19.079Z,17.40
2022-08-09T07:19:48.129Z,17.50
2022-08-09T07:22:18.175Z,17.60
2022-08-09T07:24:49.369Z,17.60
2022-08-09T07:27:26.710Z,17.80
2022-08-09T07:30:01.554Z,17.80
2022-08-09T07:32:32.174Z,17.90
2022-08-09T07:34:59.453Z,18.00
2022-08-09T07:37:26.143Z,18.10
2022-08-09T07:39:53.723Z,18.10
2022-08-09T07:42:32.600Z,18.20
2022-08-09T07:45:06.462Z,18.20
2022-08-09T07:47:49.288Z,18.20
2022-08-09T07:50:34.983Z,18.30
2022-08-09T07:53:04.801Z,18.40
2022-08-09T07:55:41.340Z,18.40
2022-08-09T07:58:18.711Z,18.50
2022-08-09T08:00:58.759Z,18.50
2022-08-09T08:03:33.264Z,18.60
2022-08-09T08:06:04.438Z,18.60
2022-08-09T08:09:01.314Z,18.80
2022-08-09T08:12:24.679Z,18.90
2022-08-09T08:14:06.311Z,19.00
2022-08-09T08:16:33.295Z,19.00
2022-08-09T08:19:02.603Z,19.10
2022-08-09T08:21:30.447Z,19.30
2022-08-09T08:23:57.114Z,19.50
2022-08-09T08:26:54.800Z,19.60
2022-08-09T08:29:15.064Z,19.70
2022-08-09T08:32:05.555Z,19.90
2022-08-09T08:34:34.375Z,20.00
2022-08-09T08:37:01.963Z,20.00
2022-08-09T08:39:28.844Z,20.00
2022-08-09T08:41:58.960Z,20.10
2022-08-09T08:44:29.532Z,20.30
2022-08-09T08:47:02.439Z,20.40
2022-08-09T08:49:38.703Z,20.50
2022-08-09T08:52:52.940Z,20.50
2022-08-09T08:55:06.665Z,20.70
2022-08-09T08:57:35.108Z,20.70
2022-08-09T09:00:02.404Z,20.70
2022-08-09T09:02:35.399Z,20.70
2022-08-09T09:05:03.015Z,20.80
2022-08-09T09:07:37.098Z,20.90
2022-08-09T09:10:10.205Z,20.90
2022-08-09T09:12:37.135Z,20.80
2022-08-09T09:15:06.012Z,20.80
2022-08-09T09:17:49.515Z,20.80
2022-08-09T09:20:21.348Z,20.90
2022-08-09T09:22:55.750Z,21.10
2022-08-09T09:26:04.292Z,21.20
2022-08-09T09:28:21.527Z,21.20
2022-08-09T09:31:17.537Z,21.30
2022-08-09T09:34:14.711Z,21.20
2022-08-09T09:36:46.692Z,21.30
2022-08-09T09:39:23.365Z,21.30
2022-08-09T09:41:50.945Z,21.40
2022-08-09T09:44:27.648Z,21.50
2022-08-09T09:47:04.362Z,21.70
2022-08-09T09:50:07.465Z,21.70
2022-08-09T09:52:36.831Z,21.80
2022-08-09T09:55:27.524Z,21.90
2022-08-09T09:58:18.649Z,22.00
2022-08-09T10:00:54.568Z,21.90
2022-08-09T10:03:44.082Z,22.00
2022-08-09T10:06:12.776Z,22.00
2022-08-09T10:08:54.632Z,22.00
2022-08-09T10:11:59.105Z,22.30
2022-08-09T10:14:30.362Z,22.40
2022-08-09T10:17:24.066Z,22.60
2022-08-09T10:19:46.814Z,22.60
2022-08-09T10:22:29.258Z,22.70
2022-08-09T10:24:58.427Z,22.80
2022-08-09T10:27:34.742Z,22.80
2022-08-09T10:30:27.184Z,22.80
2022-08-09T10:32:56.092Z,22.80
2022-08-09T10:35:23.294Z,22.70
2022-08-09T10:37:53.301Z,22.80
2022-08-09T10:40:33.431Z,22.80
2022-08-09T10:43:04.597Z,22.90
2022-08-09T10:45:42.375Z,23.10
2022-08-09T10:48:48.458Z,23.10
2022-08-09T10:51:29.533Z,23.00
2022-08-09T10:54:12.132Z,22.90
2022-08-09T10:56:40.124Z,23.00
2022-08-09T10:59:23.135Z,23.10
2022-08-09T11:03:11.444Z,23.20
2022-08-09T11:04:37.409Z,23.20
2022-08-09T11:07:22.424Z,23.20
2022-08-09T11:09:49.668Z,23.20
2022-08-09T11:12:20.102Z,23.20
2022-08-09T11:14:54.798Z,23.20
2022-08-09T11:17:22.738Z,23.10
2022-08-09T11:20:12.108Z,23.00
2022-08-09T11:22:41.122Z,23.10
2022-08-09T11:25:09.785Z,23.00
2022-08-09T11:28:03.821Z,22.90
2022-08-09T11:30:33.414Z,22.80
2022-08-09T11:33:10.510Z,22.90
2022-08-09T11:35:49.909Z,22.90
2022-08-09T11:38:28.581Z,23.00
2022-08-09T11:41:23.188Z,23.10
2022-08-09T11:43:51.734Z,23.30
2022-08-09T11:46:26.730Z,23.40
2022-08-09T11:49:00.984Z,23.60
2022-08-09T11:53:03.268Z,23.70
2022-08-09T11:54:40.023Z,23.90
2022-08-09T11:57:28.440Z,23.80
2022-08-09T12:00:13.264Z,23.80
2022-08-09T12:02:43.942Z,23.80
2022-08-09T12:05:23.037Z,23.80
2022-08-09T12:07:50.251Z,23.80
2022-08-09T12:10:38.462Z,23.90
2022-08-09T12:14:08.991Z,24.10
2022-08-09T12:15:58.769Z,24.10
2022-08-09T12:18:29.625Z,24.00
2022-08-09T12:20:59.188Z,23.90
2022-08-09T12:23:56.243Z,23.90
2022-08-09T12:26:19.750Z,23.90
2022-08-09T12:29:14.151Z,24.00
2022-08-09T12:32:02.004Z,24.10
2022-08-09T12:34:37.720Z,24.40
2022-08-09T12:37:22.255Z,24.50
2022-08-09T12:40:05.832Z,24.60
2022-08-09T12:42:32.986Z,24.60
2022-08-09T12:45:00.344Z,24.50
2022-08-09T12:47:27.632Z,24.50
2022-08-09T12:50:20.028Z,24.30
2022-08-09T12:53:09.505Z,24.20
2022-08-09T12:56:13.964Z,24.20
2022-08-09T12:58:27.694Z,24.10
2022-08-09T13:00:55.052Z,24.30
2022-08-09T13:03:53.123Z,24.30
2022-08-09T13:06:34.369Z,24.40
2022-08-09T13:09:08.186Z,24.50
2022-08-09T13:11:39.556Z,24.40
2022-08-09T13:14:42.090Z,24.40
2022-08-09T13:16:58.034Z,24.40
2022-08-09T13:20:07.327Z,24.40
2022-08-09T13:22:36.844Z,24.30
2022-08-09T13:25:12.176Z,24.40
2022-08-09T13:27:55.118Z,24.40
2022-08-09T13:30:50.969Z,24.50
2022-08-09T13:33:11.535Z,24.50
2022-08-09T13:36:24.232Z,24.50
2022-08-09T13:38:51.458Z,24.40
2022-08-09T13:41:58.475Z,24.30
2022-08-09T13:44:07.908Z,24.30
2022-08-09T13:47:15.217Z,24.30
2022-08-09T13:49:21.531Z,24.30
2022-08-09T13:52:01.403Z,24.50
2022-08-09T13:54:30.190Z,24.50
2022-08-09T13:56:57.241Z,24.60
2022-08-09T13:59:25.694Z,24.60
2022-08-09T14:02:01.350Z,24.70
2022-08-09T14:04:30.436Z,24.70
2022-08-09T14:06:58.051Z,24.70
2022-08-09T14:09:25.458Z,24.70
2022-08-09T14:11:55.912Z,24.70
2022-08-09T14:14:27.063Z,24.70
2022-08-09T14:16:56.661Z,24.80
2022-08-09T14:19:25.756Z,25.00
2022-08-09T14:21:57.027Z,25.10
2022-08-09T14:24:32.398Z,25.20
2022-08-09T14:27:01.243Z,25.30
2022-08-09T14:30:35.577Z,25.30
2022-08-09T14:32:16.164Z,25.40
2022-08-09T14:34:43.200Z,25.30
2022-08-09T14:37:11.538Z,25.30
2022-08-09T14:39:47.491Z,25.20
2022-08-09T14:42:39.374Z,25.00
2022-08-09T14:46:51.327Z,24.90
2022-08-09T14:47:58.390Z,24.70
2022-08-09T14:50:27.421Z,24.60
2022-08-09T14:52:54.105Z,24.60
2022-08-09T14:55:21.447Z,24.70
2022-08-09T14:57:48.978Z,24.70
2022-08-09T15:00:16.223Z,24.70
2022-08-09T15:02:42.895Z,24.70
2022-08-09T15:05:16.064Z,24.80
2022-08-09T15:07:45.332Z,25.00
2022-08-09T15:10:21.364Z,25.10
2022-08-09T15:12:52.665Z,25.10
2022-08-09T15:15:20.284Z,25.00
2022-08-09T15:17:52.545Z,25.20
2022-08-09T15:21:56.828Z,25.30
2022-08-09T15:24:02.109Z,25.40
2022-08-09T15:25:54.170Z,25.50
2022-08-09T15:28:27.554Z,25.50
2022-08-09T15:31:10.270Z,25.60
2022-08-09T15:34:27.344Z,25.70
2022-08-09T15:36:30.139Z,25.70
2022-08-09T15:39:00.473Z,25.70
2022-08-09T15:41:31.009Z,25.70
2022-08-09T15:44:02.278Z,25.70
2022-08-09T15:46:34.285Z,25.70
2022-08-09T15:49:07.916Z,25.80
2022-08-09T15:52:02.886Z,25.90
2022-08-09T15:54:43.109Z,25.90
2022-08-09T15:57:13.515Z,25.90
2022-08-09T15:59:40.288Z,25.90
2022-08-09T16:02:09.321Z,25.90
2022-08-09T16:04:39.948Z,25.90
2022-08-09T16:07:09.820Z,26.00
2022-08-09T16:10:02.135Z,26.00
2022-08-09T16:12:30.571Z,26.00
2022-08-09T16:14:57.825Z,25.90
2022-08-09T16:17:28.857Z,25.70
2022-08-09T16:20:04.747Z,25.50
2022-08-09T16:22:33.777Z,25.40
2022-08-09T16:25:02.522Z,25.30
2022-08-09T16:27:29.837Z,25.20
2022-08-09T16:30:09.164Z,25.00
2022-08-09T16:33:01.658Z,24.90
2022-08-09T16:35:57.606Z,24.70
2022-08-09T16:38:15.214Z,24.50
2022-08-09T16:40:45.057Z,24.40
2022-08-09T16:43:12.410Z,24.40
2022-08-09T16:45:44.403Z,24.40
2022-08-09T16:48:42.024Z,24.50
2022-08-09T16:51:08.113Z,24.60
2022-08-09T16:53:36.117Z,24.60
2022-08-09T16:56:09.384Z,24.70
2022-08-09T16:58:39.860Z,24.60
2022-08-09T17:01:09.453Z,24.50
2022-08-09T17:03:37.278Z,24.50
2022-08-09T17:06:28.152Z,24.40
2022-08-09T17:08:58.149Z,24.40
2022-08-09T17:11:40.590Z,24.40
2022-08-09T17:14:15.912Z,24.40
2022-08-09T17:16:59.945Z,24.40
2022-08-09T17:19:47.348Z,24.30
2022-08-09T17:22:15.358Z,24.30
2022-08-09T17:24:47.943Z,24.30
2022-08-09T17:27:22.359Z,24.20
2022-08-09T17:29:49.973Z,24.10
2022-08-09T17:32:23.897Z,24.10
2022-08-09T17:35:10.803Z,24.00
2022-08-09T17:38:02.316Z,23.90
2022-08-09T17:40:26.612Z,23.90
2022-08-09T17:42:59.081Z,23.90
2022-08-09T17:45:56.886Z,23.80
2022-08-09T17:48:15.528Z,23.60
2022-08-09T17:50:56.513Z,23.50
2022-08-09T17:53:28.507Z,23.30
2022-08-09T17:56:03.383Z,23.30
2022-08-09T17:58:32.803Z,23.10
2022-08-09T18:01:01.714Z,23.00
2022-08-09T18:03:30.278Z,22.90
2022-08-09T18:06:00.772Z,22.80
2022-08-09T18:08:28.125Z,22.70
2022-08-09T18:11:02.142Z,22.70
2022-08-09T18:13:53.808Z,22.50
2022-08-09T18:16:28.954Z,22.50
2022-08-09T18:19:03.511Z,22.40
2022-08-09T18:21:31.842Z,22.30
2022-08-09T18:24:14.543Z,22.20
2022-08-09T18:26:46.218Z,22.10
2022-08-09T18:30:42.122Z,21.90
2022-08-09T18:32:03.374Z,21.80
2022-08-09T18:34:35.141Z,21.60
2022-08-09T18:37:10.481Z,21.50
2022-08-09T18:39:53.087Z,21.40
2022-08-09T18:42:19.981Z,21.20
2022-08-09T18:44:47.890Z,21.00
2022-08-09T18:47:17.566Z,20.80
2022-08-09T18:49:47.607Z,20.70
2022-08-09T18:52:24.831Z,20.50
2022-08-09T18:55:01.605Z,20.40
2022-08-09T18:57:38.378Z,20.20
2022-08-09T19:00:11.316Z,20.10
2022-08-09T19:02:43.390Z,19.90
2022-08-09T19:05:19.798Z,19.80
2022-08-09T19:08:03.861Z,19.70
2022-08-09T19:10:39.570Z,19.60
2022-08-09T19:13:20.051Z,19.60
2022-08-09T19:15:55.523Z,19.60
2022-08-09T19:18:33.998Z,19.50
2022-08-09T19:21:09.434Z,19.50
2022-08-09T19:24:32.714Z,19.30
2022-08-09T19:26:31.815Z,19.30
2022-08-09T19:29:01.910Z,19.20
2022-08-09T19:31:30.686Z,19.10
2022-08-09T19:34:21.553Z,19.00
2022-08-09T19:36:53.428Z,19.00
2022-08-09T19:39:42.946Z,19.00
2022-08-09T19:42:07.395Z,18.90
2022-08-09T19:44:34.314Z,18.80
2022-08-09T19:47:01.615Z,18.80
2022-08-09T19:50:09.219Z,18.70
2022-08-09T19:52:15.695Z,18.50
2022-08-09T19:54:45.021Z,18.60
2022-08-09T19:57:11.744Z,18.50
2022-08-09T19:59:59.961Z,18.50
2022-08-09T20:04:25.278Z,18.40
2022-08-09T20:05:15.229Z,18.30
2022-08-09T20:07:59.043Z,18.30
2022-08-09T20:10:34.537Z,18.10
2022-08-09T20:13:05.194Z,18.10
2022-08-09T20:16:32.901Z,18.10
2022-08-09T20:18:20.244Z,18.00
2022-08-09T20:20:50.534Z,17.90
2022-08-09T20:23:21.162Z,17.90
2022-08-09T20:25:52.144Z,17.90
2022-08-09T20:28:28.019Z,17.80
2022-08-09T20:31:02.863Z,17.70
2022-08-09T20:33:40.906Z,17.70
2022-08-09T20:36:08.647Z,17.70
2022-08-09T20:39:18.594Z,17.60
2022-08-09T20:41:34.782Z,17.50
2022-08-09T20:44:02.893Z,17.60
2022-08-09T20:46:34.069Z,17.40
2022-08-09T20:49:10.413Z,17.30
2022-08-09T20:51:40.960Z,17.30
2022-08-09T20:54:12.655Z,17.30
2022-08-09T20:56:43.971Z,17.20
2022-08-09T20:59:16.826Z,17.10
2022-08-09T21:01:50.620Z,17.00
2022-08-09T21:05:54.350Z,17.00
2022-08-09T21:07:11.618Z,16.90
2022-08-09T21:09:55.248Z,16.90
2022-08-09T21:15:12.990Z,16.70
2022-08-09T21:18:24.061Z,16.60
2022-08-09T21:20:29.895Z,16.60
2022-08-09T21:22:57.385Z,16.60
2022-08-09T21:25:44.041Z,16.50
2022-08-09T21:28:33.452Z,16.40
2022-08-09T21:31:16.596Z,16.40
2022-08-09T21:33:50.760Z,16.20
2022-08-09T21:36:23.556Z,16.20
2022-08-09T21:38:57.977Z,16.10
2022-08-09T21:42:05.739Z,16.10
2022-08-09T21:44:32.827Z,16.00
2022-08-09T21:47:07.675Z,16.10
2022-08-09T21:49:39.805Z,16.00
2022-08-09T21:52:14.914Z,15.90
2022-08-09T21:54:59.572Z,15.90
2022-08-09T21:57:38.997Z,15.90
2022-08-09T22:00:26.289Z,15.80
2022-08-09T22:02:59.408Z,15.80
2022-08-09T22:05:35.973Z,15.70
2022-08-09T22:08:05.158Z,15.60
2022-08-09T22:10:32.056Z,15.60
2022-08-09T22:12:59.990Z,15.60
2022-08-09T22:15:35.267Z,15.60
2022-08-09T22:18:03.950Z,15.70
2022-08-09T22:20:31.478Z,15.70
2022-08-09T22:22:58.553Z,15.60
2022-08-09T22:26:05.557Z,15.60
2022-08-09T22:28:12.508Z,15.60
2022-08-09T22:30:39.251Z,15.60
2022-08-09T22:33:17.399Z,15.60
2022-08-09T22:36:01.958Z,15.60
2022-08-09T22:38:30.277Z,15.50
2022-08-09T22:40:58.535Z,15.50
2022-08-09T22:44:00.688Z,15.40
2022-08-09T22:48:14.400Z,15.40
2022-08-09T22:49:01.723Z,15.30
2022-08-09T22:51:38.154Z,15.20
2022-08-09T22:54:05.479Z,15.30
2022-08-09T22:56:35.104Z,15.10
2022-08-09T22:59:05.453Z,15.10
2022-08-09T23:01:32.944Z,15.00
2022-08-09T23:04:03.623Z,14.90
2022-08-09T23:06:51.563Z,14.90
2022-08-09T23:09:18.731Z,14.90
2022-08-09T23:11:45.435Z,15.00
2022-08-09T23:14:17.233Z,15.00
2022-08-09T23:16:44.364Z,15.00
2022-08-09T23:19:11.100Z,14.90
2022-08-09T23:21:38.711Z,14.70
2022-08-09T23:24:07.311Z,14.70
2022-08-09T23:26:36.852Z,14.80
2022-08-09T23:29:05.058Z,14.70
2022-08-09T23:31:31.937Z,14.60
2022-08-09T23:33:58.689Z,14.50
2022-08-09T23:36:25.411Z,14.40
2022-08-09T23:38:52.095Z,14.60
2022-08-09T23:41:27.891Z,14.50
2022-08-09T23:43:59.956Z,14.60
2022-08-09T23:46:27.373Z,14.50
2022-08-09T23:48:54.042Z,14.50
2022-08-09T23:51:20.772Z,14.50
2022-08-09T23:53:47.462Z,14.40
2022-08-09T23:56:17.377Z,14.40
2022-08-09T23:59:04.180Z,14.40
